createdAt,value
2018-05-15T03:01:11.414Z,985.66
2018-05-15T03:02:11.982Z,985.69
2018-05-15T03:03:12.553Z,985.66
2018-05-15T03:05:12.088Z,985.67
2018-05-15T03:06:17.260Z,985.63
2018-05-15T03:07:13.746Z,985.68
2018-05-15T03:08:13.059Z,985.69
2018-05-15T03:09:12.566Z,985.67
2018-05-15T03:10:10.609Z,985.68
2018-05-15T03:11:10.615Z,985.65
2018-05-15T03:12:11.015Z,985.68
2018-05-15T03:13:11.023Z,985.75
2018-05-15T03:14:11.064Z,985.73
2018-05-15T03:15:11.359Z,985.72
2018-05-15T03:16:11.320Z,985.71
2018-05-15T03:17:11.605Z,985.68
2018-05-15T03:18:11.758Z,985.71
2018-05-15T03:19:11.948Z,985.72
2018-05-15T03:20:12.077Z,985.68
2018-05-15T03:21:12.761Z,985.74
2018-05-15T03:22:12.800Z,985.75
2018-05-15T03:23:12.728Z,985.73
2018-05-15T03:24:12.929Z,985.76
2018-05-15T03:25:13.079Z,985.79
2018-05-15T03:26:13.436Z,985.84
2018-05-15T03:27:13.656Z,985.80
2018-05-15T03:28:13.824Z,985.81
2018-05-15T03:29:13.864Z,985.84
2018-05-15T03:30:14.089Z,985.87
2018-05-15T03:31:14.471Z,985.87
2018-05-15T03:32:15.213Z,985.90
2018-05-15T03:33:14.636Z,985.85
2018-05-15T03:34:14.763Z,985.85
2018-05-15T03:35:14.949Z,985.93
2018-05-15T03:36:15.129Z,985.84
2018-05-15T03:37:15.294Z,985.88
2018-05-15T03:38:15.503Z,985.88
2018-05-15T03:39:15.566Z,985.89
2018-05-15T03:40:15.770Z,985.92
2018-05-15T03:41:15.892Z,985.90
2018-05-15T03:42:16.151Z,985.89
2018-05-15T03:43:16.421Z,985.88
2018-05-15T03:44:16.360Z,985.86
2018-05-15T03:45:16.569Z,985.87
2018-05-15T03:46:16.722Z,985.84
2018-05-15T03:47:16.869Z,985.86
2018-05-15T03:48:17.057Z,985.85
2018-05-15T03:49:17.325Z,985.86
2018-05-15T03:50:17.540Z,985.86
2018-05-15T03:51:17.495Z,985.86
2018-05-15T03:52:17.939Z,985.84
2018-05-15T03:53:17.878Z,985.87
2018-05-15T03:54:18.155Z,985.84
2018-05-15T03:55:18.288Z,985.86
2018-05-15T03:56:18.409Z,985.84
2018-05-15T03:57:18.651Z,985.87
2018-05-15T03:58:18.744Z,985.89
2018-05-15T03:59:18.892Z,985.91
2018-05-15T04:00:19.014Z,985.91
2018-05-15T04:01:19.396Z,985.95
2018-05-15T04:02:19.401Z,985.95
2018-05-15T04:03:19.742Z,985.94
2018-05-15T04:04:19.865Z,985.92
2018-05-15T04:05:20.196Z,985.95
2018-05-15T04:06:20.388Z,985.98
2018-05-15T04:07:20.510Z,985.99
2018-05-15T04:08:20.647Z,986.00
2018-05-15T04:09:20.930Z,986.02
2018-05-15T04:10:21.375Z,986.01
2018-05-15T04:11:21.005Z,986.04
2018-05-15T04:12:21.648Z,986.01
2018-05-15T04:13:21.310Z,986.07
2018-05-15T04:14:21.781Z,986.04
2018-05-15T04:15:21.581Z,986.10
2018-05-15T04:16:21.931Z,986.08
2018-05-15T04:17:22.236Z,986.08
2018-05-15T04:18:22.298Z,986.10
2018-05-15T04:19:22.539Z,986.12
2018-05-15T04:20:22.487Z,986.12
2018-05-15T04:21:22.914Z,986.14
2018-05-15T04:22:23.116Z,986.19
2018-05-15T04:23:23.272Z,986.23
2018-05-15T04:24:23.438Z,986.27
2018-05-15T04:25:23.673Z,986.28
2018-05-15T04:26:24.000Z,986.31
2018-05-15T04:27:23.809Z,986.28
2018-05-15T04:28:24.137Z,986.30
2018-05-15T04:29:24.267Z,986.31
2018-05-15T04:30:24.439Z,986.30
2018-05-15T04:31:24.554Z,986.30
2018-05-15T04:32:24.839Z,986.34
2018-05-15T04:33:25.003Z,986.36
2018-05-15T04:34:25.213Z,986.33
2018-05-15T04:35:25.836Z,986.34
2018-05-15T04:36:25.642Z,986.32
2018-05-15T04:37:25.727Z,986.37
2018-05-15T04:38:39.254Z,986.39
2018-05-15T04:39:28.942Z,986.42
2018-05-15T04:40:28.818Z,986.44
2018-05-15T04:41:29.085Z,986.42
2018-05-15T04:42:29.890Z,986.47
2018-05-15T04:43:29.054Z,986.48
2018-05-15T04:44:30.112Z,986.45
2018-05-15T04:45:32.033Z,986.47
2018-05-15T04:46:30.089Z,986.48
2018-05-15T04:47:30.468Z,986.50
2018-05-15T04:48:30.935Z,986.54
2018-05-15T04:49:28.073Z,986.53
2018-05-15T04:50:27.969Z,986.51
2018-05-15T04:51:28.106Z,986.55
2018-05-15T04:52:28.359Z,986.58
2018-05-15T04:53:29.075Z,986.59
2018-05-15T04:54:28.589Z,986.61
2018-05-15T04:55:28.972Z,986.63
2018-05-15T04:56:30.224Z,986.63
2018-05-15T04:57:29.384Z,986.65
2018-05-15T04:58:29.518Z,986.64
2018-05-15T04:59:29.812Z,986.65
2018-05-15T05:00:29.730Z,986.65
2018-05-15T05:01:30.613Z,986.64
2018-05-15T05:02:30.660Z,986.60
2018-05-15T05:03:33.193Z,986.64
2018-05-15T05:04:30.648Z,986.58
2018-05-15T05:05:30.905Z,986.59
2018-05-15T05:08:16.360Z,986.67
2018-05-15T05:09:16.864Z,986.69
2018-05-15T05:10:19.815Z,986.70
2018-05-15T05:11:18.665Z,986.71
2018-05-15T05:12:18.726Z,986.79
2018-05-15T05:13:16.407Z,986.79
2018-05-15T05:15:18.746Z,986.80
2018-05-15T05:16:29.656Z,986.78
2018-05-15T05:17:18.954Z,986.78
2018-05-15T05:18:17.960Z,986.79
2018-05-15T05:19:17.965Z,986.84
2018-05-15T05:21:18.865Z,986.86
2018-05-15T05:22:22.735Z,986.91
2018-05-15T05:23:19.105Z,986.90
2018-05-15T05:24:19.920Z,986.86
2018-05-15T05:25:19.567Z,986.89
2018-05-15T05:38:39.180Z,987.04
2018-05-15T05:39:24.355Z,987.06
2018-05-15T05:40:22.591Z,987.08
2018-05-15T05:41:31.671Z,987.07
2018-05-15T05:43:25.307Z,987.09
2018-05-15T05:44:26.777Z,987.14
2018-05-15T06:30:26.139Z,987.24
2018-05-15T06:31:25.792Z,987.25
2018-05-15T06:32:29.391Z,987.24
2018-05-15T06:33:26.761Z,987.27
2018-05-15T06:34:27.378Z,987.29
2018-05-15T06:37:28.100Z,987.32
2018-05-15T06:41:27.245Z,987.34
2018-05-15T06:42:26.496Z,987.35
2018-05-15T06:46:53.844Z,987.38
2018-05-15T06:47:55.383Z,987.34
2018-05-15T06:48:56.472Z,987.34
2018-05-15T06:49:55.941Z,987.34
2018-05-15T06:50:56.583Z,987.34
2018-05-15T06:52:00.342Z,987.35
2018-05-15T06:52:59.776Z,987.35
2018-05-15T06:53:55.977Z,987.35
2018-05-15T06:55:00.386Z,987.37
2018-05-15T06:55:56.105Z,987.36
2018-05-15T06:56:57.397Z,987.34
2018-05-15T06:59:57.585Z,987.35
2018-05-15T07:00:00.495Z,987.34
2018-05-15T07:01:00.622Z,987.34
2018-05-15T07:02:00.929Z,987.33
2018-05-15T07:03:01.204Z,987.33
2018-05-15T07:04:01.790Z,987.32
2018-05-15T07:05:01.491Z,987.35
2018-05-15T07:06:01.942Z,987.33
2018-05-15T07:07:02.008Z,987.35
2018-05-15T07:08:02.025Z,987.33
2018-05-15T07:09:02.149Z,987.34
2018-05-15T07:10:02.343Z,987.35
2018-05-15T07:11:03.453Z,987.37
2018-05-15T07:12:02.954Z,987.31
2018-05-15T07:13:03.067Z,987.32
2018-05-15T07:14:03.119Z,987.37
2018-05-15T07:15:03.259Z,987.34
2018-05-15T07:16:03.741Z,987.34
2018-05-15T07:17:03.807Z,987.38
2018-05-15T07:18:04.260Z,987.36
2018-05-15T07:19:04.317Z,987.36
2018-05-15T07:20:04.374Z,987.37
2018-05-15T07:21:04.740Z,987.38
2018-05-15T07:22:04.832Z,987.41
2018-05-15T07:23:05.234Z,987.43
2018-05-15T07:24:05.315Z,987.42
2018-05-15T07:25:10.718Z,987.42
2018-05-15T07:27:42.423Z,987.45
2018-05-15T09:02:45.676Z,987.90
2018-05-15T09:24:59.838Z,987.81
2018-05-15T09:26:50.991Z,987.87
2018-05-15T10:43:51.226Z,988.32
2018-05-15T10:44:56.632Z,987.73
2018-05-15T10:45:57.348Z,987.72
2018-05-15T10:47:56.400Z,987.70
2018-05-15T10:48:55.617Z,987.70
2018-05-15T10:49:55.532Z,987.77
2018-05-15T10:50:59.858Z,987.74
2018-05-15T10:51:56.499Z,987.87
2018-05-15T10:53:54.457Z,987.65
2018-05-15T10:54:53.942Z,987.64
2018-05-15T10:55:53.737Z,987.62
2018-05-15T10:56:54.062Z,987.62
2018-05-15T10:57:55.869Z,987.62
2018-05-15T10:58:54.568Z,987.60
2018-05-15T10:59:54.489Z,987.64
2018-05-15T11:04:10.469Z,987.53
2018-05-15T11:05:06.864Z,987.49
2018-05-15T11:07:08.849Z,987.54
2018-05-15T11:09:12.298Z,987.52
2018-05-15T11:10:08.410Z,987.55
2018-05-15T11:11:10.179Z,987.52
2018-05-15T11:12:08.134Z,987.49
2018-05-15T11:13:05.984Z,987.44
2018-05-15T11:14:05.818Z,987.44
2018-05-15T11:15:06.606Z,987.46
2018-05-15T11:16:05.971Z,987.43
2018-05-15T11:17:10.081Z,987.40
2018-05-15T11:18:13.368Z,987.37
2018-05-15T11:19:06.521Z,987.35
2018-05-15T11:20:06.740Z,987.31
2018-05-15T11:21:07.791Z,987.32
2018-05-15T11:22:18.672Z,987.32
2018-05-15T11:23:11.872Z,987.29
2018-05-15T11:24:10.772Z,987.28
2018-05-15T11:25:10.159Z,987.27
2018-05-15T11:26:08.189Z,987.27
2018-05-15T11:27:07.982Z,987.25
2018-05-15T11:28:08.147Z,987.25
2018-05-15T11:29:08.366Z,987.24
2018-05-15T11:30:08.474Z,987.21
2018-05-15T11:31:09.034Z,987.23
2018-05-15T11:32:25.672Z,987.17
2018-05-15T11:33:09.500Z,987.22
2018-05-15T11:34:10.222Z,987.19
2018-05-15T11:35:09.722Z,987.19
2018-05-15T11:36:09.882Z,987.18
2018-05-15T11:38:59.829Z,987.15
2018-05-15T11:41:33.236Z,987.16
2018-05-15T11:42:33.600Z,987.08
2018-05-15T11:43:33.899Z,987.12
2018-05-15T11:57:08.292Z,987.33
2018-05-15T11:58:07.674Z,987.30
2018-05-15T12:04:44.719Z,987.14
2018-05-15T12:07:28.632Z,987.07
2018-05-15T12:08:26.047Z,987.17
2018-05-15T12:10:37.024Z,987.10
2018-05-15T12:11:26.344Z,987.08
2018-05-15T12:29:47.242Z,986.95
2018-05-15T16:34:20.208Z,986.12
2018-05-15T16:40:53.624Z,986.14
2018-05-15T16:42:44.840Z,986.12
2018-05-15T16:43:46.934Z,986.09
2018-05-15T16:54:21.682Z,985.97
2018-05-15T16:58:49.667Z,985.92
2018-05-15T17:05:51.121Z,985.86
2018-05-15T17:06:52.234Z,985.86
2018-05-15T17:07:53.744Z,985.83
2018-05-15T17:09:56.282Z,985.77
2018-05-15T17:10:56.415Z,985.77
2018-05-15T17:18:47.685Z,985.77
2018-05-15T17:19:49.523Z,985.77
2018-05-15T17:20:50.281Z,985.74
2018-05-15T17:21:47.208Z,985.73
2018-05-15T17:22:47.363Z,985.72
2018-05-15T17:23:47.450Z,985.72
2018-05-15T17:24:47.651Z,985.75
2018-05-15T17:25:47.893Z,985.76
2018-05-15T17:26:48.100Z,985.79
2018-05-15T17:27:48.159Z,985.81
2018-05-15T17:28:48.410Z,985.83
2018-05-15T17:29:48.587Z,985.81
2018-05-15T17:30:48.652Z,985.80
2018-05-15T17:31:48.905Z,985.78
2018-05-15T17:32:49.043Z,985.80
2018-05-15T17:33:49.221Z,985.80
2018-05-15T17:34:49.348Z,985.81
2018-05-15T17:35:51.706Z,985.88
2018-05-15T17:43:30.086Z,985.71
2018-05-15T17:44:33.091Z,985.71
2018-05-15T18:18:09.240Z,985.50
2018-05-15T18:20:28.485Z,985.43
2018-05-15T21:46:39.371Z,986.34
